Time;durP1;ratioP1;P1;durP2;ratioP2;P2;SDS_P1;SDS_P2;PMS_P1;PMS_P2;Temp;Humidity;BMP_temperature;BMP_pressure;BME280_temperature;BME280_humidity;BME280_pressure;Samples;Min_cycle;Max_cycle;Signal;HPM_P1;HPM_P2
2023/06/09 00:00:37;;;;;;;5.90;3.03;;;18.30;99.90;;;;;;5007524;28;20033;-68
2023/06/09 00:03:05;;;;;;;5.30;3.08;;;18.30;99.90;;;;;;5002219;28;20034;-68
2023/06/09 00:05:32;;;;;;;6.70;2.97;;;18.40;99.90;;;;;;4982385;28;20027;-68
2023/06/09 00:08:02;;;;;;;5.88;3.22;;;18.30;99.90;;;;;;4968296;28;20026;-68
2023/06/09 00:10:28;;;;;;;6.33;3.77;;;18.30;99.90;;;;;;5008356;28;20051;-68
2023/06/09 00:12:54;;;;;;;4.70;3.08;;;18.10;99.90;;;;;;4981965;28;20277;-68
2023/06/09 00:15:21;;;;;;;6.97;3.47;;;18.10;99.90;;;;;;5010077;28;20037;-68
2023/06/09 00:17:48;;;;;;;6.05;3.53;;;18.10;99.90;;;;;;4985803;28;20033;-67
2023/06/09 00:20:14;;;;;;;5.97;3.40;;;18.00;99.90;;;;;;5009755;28;20612;-67
2023/06/09 00:22:44;;;;;;;8.55;3.58;;;18.00;99.90;;;;;;4996505;28;20434;-68
2023/06/09 00:25:15;;;;;;;8.02;3.80;;;17.90;99.90;;;;;;4955165;28;20069;-68
2023/06/09 00:27:45;;;;;;;7.13;3.50;;;17.90;99.90;;;;;;4977963;28;20390;-67
2023/06/09 00:30:14;;;;;;;7.43;3.38;;;17.80;99.90;;;;;;4959176;28;20479;-68
2023/06/09 00:32:42;;;;;;;6.07;3.30;;;17.80;99.90;;;;;;4996252;28;20046;-68
2023/06/09 00:35:09;;;;;;;5.68;3.17;;;17.80;99.90;;;;;;4971668;28;20031;-68
2023/06/09 00:37:35;;;;;;;6.53;2.70;;;17.80;99.90;;;;;;4995192;28;20050;-68
2023/06/09 00:40:03;;;;;;;5.20;3.13;;;17.90;99.90;;;;;;5010207;28;20038;-68
2023/06/09 00:42:30;;;;;;;4.90;2.85;;;17.90;99.90;;;;;;4981097;28;20773;-68
2023/06/09 00:44:56;;;;;;;7.75;3.90;;;18.00;99.90;;;;;;4994241;28;20040;-68
2023/06/09 00:47:22;;;;;;;11.40;3.70;;;18.00;99.90;;;;;;4984635;28;20027;-69
2023/06/09 00:49:49;;;;;;;7.22;3.25;;;18.00;99.90;;;;;;4992140;28;20393;-69
2023/06/09 00:52:15;;;;;;;5.50;3.42;;;18.00;99.90;;;;;;4988830;28;20037;-68
2023/06/09 00:54:41;;;;;;;6.15;3.63;;;17.90;99.90;;;;;;4993719;28;20037;-68
2023/06/09 00:57:08;;;;;;;4.95;2.67;;;17.90;99.90;;;;;;4986463;28;20035;-68
2023/06/09 00:59:35;;;;;;;4.47;3.03;;;17.70;99.90;;;;;;4988346;28;20149;-68
2023/06/09 01:02:04;;;;;;;7.30;3.65;;;17.60;99.90;;;;;;5005230;28;20650;-68
2023/06/09 01:04:35;;;;;;;6.22;3.17;;;17.70;99.90;;;;;;4999044;28;20038;-69
2023/06/09 01:07:28;;;;;;;;;;;17.70;99.90;;;;;;4955761;28;20033;-69
2023/06/09 01:10:23;;;;;;;6.18;3.28;;;17.70;99.90;;;;;;5005431;28;20471;-68
2023/06/09 01:13:45;;;;;;;7.32;3.40;;;17.70;99.90;;;;;;4986333;28;20030;-69
2023/06/09 01:16:30;;;;;;;6.10;3.75;;;17.50;99.90;;;;;;4942676;29;20039;-68
2023/06/09 01:19:01;;;;;;;7.15;3.65;;;17.30;99.90;;;;;;5004110;28;20126;-68
2023/06/09 01:21:40;;;;;;;10.23;3.97;;;17.20;99.90;;;;;;4982644;28;20105;-69
2023/06/09 01:24:45;;;;;;;7.47;3.15;;;17.20;99.90;;;;;;4975635;28;20504;-68
2023/06/09 01:27:14;;;;;;;6.00;3.40;;;17.20;99.90;;;;;;4995341;28;20120;-68
2023/06/09 01:29:43;;;;;;;6.38;3.47;;;17.20;99.90;;;;;;4993553;28;20030;-68
2023/06/09 01:32:13;;;;;;;6.82;4.10;;;17.00;99.90;;;;;;5003728;28;20037;-67
2023/06/09 01:34:39;;;;;;;8.45;3.83;;;16.80;99.90;;;;;;4992761;28;20052;-68
2023/06/09 01:37:06;;;;;;;5.95;3.42;;;16.70;99.90;;;;;;4989221;28;20406;-68
2023/06/09 01:39:32;;;;;;;6.60;3.45;;;16.60;99.90;;;;;;4991555;28;20037;-68
2023/06/09 01:41:58;;;;;;;5.80;3.63;;;16.60;99.90;;;;;;4986654;28;20043;-67
2023/06/09 01:44:24;;;;;;;15.43;4.18;;;16.40;99.90;;;;;;4978914;28;20041;-68
2023/06/09 01:46:50;;;;;;;6.53;3.55;;;16.40;99.90;;;;;;4977103;28;20389;-68
2023/06/09 01:49:32;;;;;;;7.63;3.83;;;16.40;99.90;;;;;;5006957;28;20485;-68
2023/06/09 01:52:14;;;;;;;5.25;3.03;;;16.40;99.90;;;;;;4990536;28;20029;-68
2023/06/09 01:54:52;;;;;;;8.10;3.47;;;16.50;99.90;;;;;;4993212;28;20130;-68
2023/06/09 01:57:39;;;;;;;8.80;3.90;;;16.60;99.90;;;;;;4971794;28;20030;-68
2023/06/09 02:00:07;;;;;;;7.93;3.88;;;16.30;99.90;;;;;;5013359;28;20504;-68
2023/06/09 02:02:34;;;;;;;6.40;3.53;;;16.20;99.90;;;;;;5001573;28;20042;-67
2023/06/09 02:05:04;;;;;;;7.00;3.92;;;16.30;99.90;;;;;;4994822;28;20026;-68
2023/06/09 02:07:30;;;;;;;9.57;3.60;;;16.40;99.90;;;;;;4982213;28;20027;-68
2023/06/09 02:09:56;;;;;;;5.55;3.13;;;16.40;99.90;;;;;;4993335;28;20470;-67
2023/06/09 02:12:22;;;;;;;5.22;3.05;;;16.50;99.90;;;;;;5001116;28;20124;-66
2023/06/09 02:14:48;;;;;;;6.25;3.38;;;16.70;99.90;;;;;;5005031;28;20081;-67
2023/06/09 02:17:15;;;;;;;6.00;3.33;;;16.70;99.90;;;;;;4998602;28;20555;-68
2023/06/09 02:19:41;;;;;;;5.55;3.15;;;16.80;99.90;;;;;;4995430;28;20048;-67
2023/06/09 02:22:08;;;;;;;6.53;3.60;;;16.80;99.90;;;;;;5003048;28;20022;-67
2023/06/09 02:24:34;;;;;;;6.97;3.35;;;16.80;99.90;;;;;;4990828;28;20472;-67
2023/06/09 02:27:05;;;;;;;7.80;3.42;;;16.80;99.90;;;;;;4988820;28;20037;-67
2023/06/09 02:29:31;;;;;;;5.53;3.33;;;16.80;99.90;;;;;;4990793;28;20033;-67
2023/06/09 02:31:59;;;;;;;6.90;3.72;;;16.60;99.90;;;;;;4989065;28;20690;-67
2023/06/09 02:34:27;;;;;;;6.68;4.20;;;16.60;99.90;;;;;;5006741;28;20034;-66
2023/06/09 02:36:54;;;;;;;7.30;3.88;;;16.60;99.90;;;;;;5005018;28;20485;-67
2023/06/09 02:39:23;;;;;;;6.25;3.42;;;16.50;99.90;;;;;;4989343;28;20046;-67
2023/06/09 02:41:49;;;;;;;8.82;3.47;;;16.40;99.90;;;;;;5007238;28;20092;-67
2023/06/09 02:44:15;;;;;;;5.00;2.75;;;16.40;99.90;;;;;;4987840;28;20038;-67
2023/06/09 02:46:43;;;;;;;7.68;4.00;;;16.50;99.90;;;;;;4991134;28;20429;-67
2023/06/09 02:49:09;;;;;;;4.70;3.00;;;16.60;99.90;;;;;;4995938;28;20037;-67
2023/06/09 02:51:38;;;;;;;7.10;4.30;;;16.70;99.90;;;;;;4991154;28;20030;-67
2023/06/09 02:54:04;;;;;;;7.63;3.75;;;16.60;99.90;;;;;;5003819;28;20041;-68
2023/06/09 02:56:29;;;;;;;8.48;4.15;;;16.50;99.90;;;;;;4991157;28;20037;-67
2023/06/09 02:58:57;;;;;;;9.57;3.80;;;16.50;99.90;;;;;;5003879;28;20038;-67
2023/06/09 03:01:23;;;;;;;16.55;4.20;;;16.30;99.90;;;;;;5004743;28;20537;-68
2023/06/09 03:03:49;;;;;;;5.82;3.40;;;16.00;99.90;;;;;;5003638;28;20109;-68
2023/06/09 03:06:16;;;;;;;8.15;3.38;;;15.70;99.90;;;;;;4989812;28;20362;-68
2023/06/09 03:08:43;;;;;;;5.80;3.95;;;15.70;99.90;;;;;;4986236;28;20441;-68
2023/06/09 03:11:09;;;;;;;6.93;3.83;;;15.50;99.90;;;;;;4990741;28;20113;-68
2023/06/09 03:13:35;;;;;;;7.40;4.07;;;15.70;99.90;;;;;;5003596;28;20132;-67
2023/06/09 03:16:03;;;;;;;6.70;3.55;;;15.70;99.90;;;;;;4981429;28;20789;-68
2023/06/09 03:18:29;;;;;;;15.57;4.32;;;15.70;99.90;;;;;;5003680;28;20440;-68
2023/06/09 03:21:04;;;;;;;6.15;4.03;;;15.80;99.90;;;;;;4990237;28;20060;-68
2023/06/09 03:23:30;;;;;;;8.25;3.72;;;15.60;99.90;;;;;;4987136;28;20018;-68
2023/06/09 03:25:57;;;;;;;7.65;4.15;;;15.80;99.90;;;;;;4990668;28;20474;-67
2023/06/09 03:28:23;;;;;;;7.55;4.03;;;15.90;99.90;;;;;;4986482;28;20021;-67
2023/06/09 03:30:49;;;;;;;8.45;4.00;;;16.00;99.90;;;;;;5005135;28;20031;-67
2023/06/09 03:33:18;;;;;;;7.68;4.55;;;16.00;99.90;;;;;;5003320;28;20025;-68
2023/06/09 03:35:44;;;;;;;10.10;3.70;;;15.90;99.90;;;;;;5008207;28;20092;-66
2023/06/09 03:38:10;;;;;;;9.18;4.63;;;15.90;99.90;;;;;;5008878;23;20115;-63
2023/06/09 03:40:36;;;;;;;10.85;3.90;;;15.90;99.90;;;;;;4979317;28;20477;-63
2023/06/09 03:43:02;;;;;;;12.02;4.82;;;16.00;99.90;;;;;;4986385;28;20030;-64
2023/06/09 03:45:28;;;;;;;7.45;3.88;;;16.00;99.90;;;;;;5002731;28;20026;-63
2023/06/09 03:47:54;;;;;;;6.82;3.67;;;16.00;99.90;;;;;;5002526;28;20096;-64
2023/06/09 03:50:20;;;;;;;6.72;3.97;;;15.90;99.90;;;;;;5003140;28;20096;-64
2023/06/09 03:52:46;;;;;;;7.90;4.50;;;16.00;99.90;;;;;;4994622;28;20027;-64
2023/06/09 03:55:12;;;;;;;6.90;4.03;;;16.00;99.90;;;;;;5002741;28;20034;-64
2023/06/09 03:57:37;;;;;;;6.47;3.88;;;15.80;99.90;;;;;;4998526;28;20030;-63
2023/06/09 04:00:04;;;;;;;8.38;3.92;;;15.70;99.90;;;;;;5002144;28;20037;-63
2023/06/09 04:02:30;;;;;;;11.88;4.10;;;15.80;99.90;;;;;;5002269;28;20513;-63
2023/06/09 04:04:55;;;;;;;8.00;3.70;;;15.90;99.90;;;;;;4995328;28;20106;-63
2023/06/09 04:07:21;;;;;;;9.00;4.18;;;15.90;99.90;;;;;;4994599;28;20053;-63
2023/06/09 04:09:47;;;;;;;7.35;3.65;;;16.00;99.90;;;;;;4997514;28;20030;-63
2023/06/09 04:12:13;;;;;;;5.78;3.42;;;16.10;99.90;;;;;;5005154;28;20030;-64
2023/06/09 04:14:38;;;;;;;7.82;3.53;;;16.00;99.90;;;;;;4991402;28;20117;-63
2023/06/09 04:17:05;;;;;;;6.88;3.78;;;16.10;99.90;;;;;;5007964;28;20034;-64
2023/06/09 04:19:31;;;;;;;8.15;3.85;;;16.10;99.90;;;;;;4976944;28;20033;-64
2023/06/09 04:22:05;;;;;;;9.18;4.32;;;16.20;99.90;;;;;;4990474;28;20030;-64
2023/06/09 04:24:31;;;;;;;9.43;4.90;;;16.10;99.90;;;;;;4994363;28;20027;-64
2023/06/09 04:26:57;;;;;;;11.00;3.83;;;16.10;99.90;;;;;;5007813;28;20025;-63
2023/06/09 04:29:23;;;;;;;7.05;4.38;;;16.10;99.90;;;;;;4993278;28;20121;-63
2023/06/09 04:31:53;;;;;;;7.78;3.72;;;16.20;99.90;;;;;;5008570;28;20117;-63
2023/06/09 04:34:19;;;;;;;8.02;4.00;;;16.20;99.90;;;;;;4998374;28;20048;-63
2023/06/09 04:36:47;;;;;;;7.78;3.72;;;16.10;99.90;;;;;;5007696;28;20472;-63
2023/06/09 04:39:13;;;;;;;7.82;4.25;;;16.10;99.90;;;;;;4992429;28;20108;-64
2023/06/09 04:41:38;;;;;;;7.13;3.90;;;16.10;99.90;;;;;;4989473;28;20062;-63
2023/06/09 04:44:05;;;;;;;7.20;4.00;;;16.20;99.90;;;;;;4993241;28;20057;-63
2023/06/09 04:46:37;;;;;;;8.27;4.32;;;16.20;99.90;;;;;;5005933;28;20437;-64
2023/06/09 04:49:09;;;;;;;9.15;3.85;;;16.30;99.90;;;;;;4993830;28;20034;-62
2023/06/09 04:51:47;;;;;;;7.25;4.10;;;16.40;99.90;;;;;;4989406;28;20470;-63
2023/06/09 04:54:14;;;;;;;8.38;3.78;;;16.50;99.90;;;;;;4992121;28;20041;-63
2023/06/09 04:56:45;;;;;;;7.00;3.80;;;16.70;99.90;;;;;;5006960;28;20456;-63
2023/06/09 04:59:13;;;;;;;6.85;3.92;;;16.70;99.90;;;;;;4998802;28;20109;-64
2023/06/09 05:01:40;;;;;;;8.32;3.95;;;16.70;99.90;;;;;;5006996;28;20037;-64
2023/06/09 05:04:07;;;;;;;7.68;4.18;;;16.70;99.90;;;;;;4993061;28;20031;-66
2023/06/09 05:06:33;;;;;;;7.18;4.20;;;16.70;99.90;;;;;;4988684;28;20076;-63
2023/06/09 05:08:59;;;;;;;9.98;4.25;;;16.90;99.90;;;;;;4982768;28;20068;-59
2023/06/09 05:11:25;;;;;;;9.05;4.70;;;17.10;99.90;;;;;;5005026;28;20038;-59
2023/06/09 05:13:51;;;;;;;7.80;4.38;;;17.10;99.90;;;;;;5000659;28;20516;-59
2023/06/09 05:16:16;;;;;;;8.05;4.32;;;17.10;99.90;;;;;;4969002;28;20026;-60
2023/06/09 05:18:43;;;;;;;6.97;4.07;;;17.10;99.90;;;;;;4985379;28;20536;-60
2023/06/09 05:21:10;;;;;;;8.13;4.03;;;17.00;99.90;;;;;;4986659;28;20026;-60
2023/06/09 05:23:36;;;;;;;8.45;3.90;;;17.00;99.90;;;;;;4970932;28;20077;-59
2023/06/09 05:26:02;;;;;;;11.73;4.75;;;16.90;99.90;;;;;;4994091;28;20033;-60
2023/06/09 05:28:28;;;;;;;9.48;4.82;;;16.90;99.90;;;;;;5001562;28;20022;-60
2023/06/09 05:30:54;;;;;;;10.18;4.93;;;17.00;99.90;;;;;;5005527;28;20061;-60
2023/06/09 05:33:20;;;;;;;7.90;4.40;;;17.00;99.90;;;;;;5003580;28;20053;-60
2023/06/09 05:35:47;;;;;;;6.85;3.63;;;17.10;99.90;;;;;;4992351;28;20030;-60
2023/06/09 05:38:12;;;;;;;8.38;4.03;;;17.30;99.90;;;;;;4983795;28;20023;-61
2023/06/09 05:40:38;;;;;;;7.63;4.43;;;17.40;99.90;;;;;;4990885;28;20118;-59
2023/06/09 05:43:04;;;;;;;9.13;4.97;;;17.40;99.90;;;;;;4989154;28;20053;-56
2023/06/09 05:45:30;;;;;;;10.50;4.28;;;17.50;99.90;;;;;;4988159;28;20080;-58
2023/06/09 05:47:56;;;;;;;8.88;4.90;;;17.70;99.90;;;;;;4979792;28;20023;-57
2023/06/09 05:50:22;;;;;;;15.10;5.13;;;17.70;99.90;;;;;;4989894;28;20486;-57
2023/06/09 05:52:48;;;;;;;16.85;4.53;;;17.90;99.90;;;;;;5005185;28;20033;-60
2023/06/09 05:55:16;;;;;;;10.48;3.92;;;18.00;99.90;;;;;;4999013;28;20026;-59
2023/06/09 05:57:44;;;;;;;5.10;3.55;;;18.10;99.90;;;;;;5005362;28;20037;-56
2023/06/09 06:00:10;;;;;;;6.65;3.60;;;18.20;99.90;;;;;;4991531;28;20092;-58
2023/06/09 06:02:39;;;;;;;7.63;3.50;;;18.50;99.90;;;;;;5001279;28;20052;-58
2023/06/09 06:05:07;;;;;;;7.63;3.92;;;18.50;99.90;;;;;;5001999;28;20030;-59
2023/06/09 06:07:36;;;;;;;8.38;4.43;;;18.80;99.90;;;;;;4967929;28;20035;-60
2023/06/09 06:10:06;;;;;;;10.90;3.80;;;19.00;99.90;;;;;;5002949;28;20080;-59
2023/06/09 06:12:35;;;;;;;14.07;4.07;;;19.10;99.90;;;;;;4995876;28;20466;-58
2023/06/09 06:15:01;;;;;;;7.80;3.72;;;19.30;99.90;;;;;;4986471;28;20057;-59
2023/06/09 06:17:26;;;;;;;4.88;3.38;;;19.40;99.90;;;;;;5002803;28;20495;-55
2023/06/09 06:19:52;;;;;;;6.72;3.63;;;19.30;99.90;;;;;;5000550;28;20085;-53
2023/06/09 06:22:18;;;;;;;5.53;2.80;;;19.30;99.90;;;;;;4988156;28;20029;-51
2023/06/09 06:24:44;;;;;;;5.43;3.08;;;19.40;99.90;;;;;;4997056;28;20470;-55
2023/06/09 06:27:11;;;;;;;6.05;3.33;;;19.60;99.90;;;;;;4997906;28;20035;-54
2023/06/09 06:29:38;;;;;;;4.90;3.00;;;19.60;99.90;;;;;;4992165;28;20030;-55
2023/06/09 06:32:06;;;;;;;5.47;2.90;;;19.80;99.90;;;;;;5003792;28;20030;-53
2023/06/09 06:34:32;;;;;;;6.93;2.75;;;20.20;99.90;;;;;;5000867;28;20030;-55
2023/06/09 06:36:58;;;;;;;5.97;2.95;;;20.40;99.90;;;;;;4996428;28;20483;-52
2023/06/09 06:39:24;;;;;;;3.70;2.38;;;20.70;99.90;;;;;;4997304;28;20104;-56
2023/06/09 06:41:49;;;;;;;5.30;2.38;;;20.80;99.90;;;;;;5000560;28;20029;-54
2023/06/09 06:44:15;;;;;;;9.88;2.83;;;20.80;99.90;;;;;;4992162;28;20557;-54
2023/06/09 06:46:41;;;;;;;4.53;2.65;;;20.90;99.90;;;;;;5004409;28;20022;-55
2023/06/09 06:49:06;;;;;;;6.18;2.90;;;20.60;99.90;;;;;;4996452;28;20027;-54
2023/06/09 06:51:32;;;;;;;8.38;2.65;;;20.50;99.90;;;;;;4996472;28;20099;-53
2023/06/09 06:53:58;;;;;;;4.45;2.15;;;20.50;99.90;;;;;;4988118;28;20042;-56
2023/06/09 06:56:25;;;;;;;4.03;2.60;;;20.60;99.90;;;;;;5003127;28;20034;-53
2023/06/09 06:58:52;;;;;;;4.60;3.03;;;20.70;99.90;;;;;;4991392;28;20035;-53
2023/06/09 07:01:20;;;;;;;4.18;2.60;;;20.60;99.90;;;;;;5001035;28;20030;-50
2023/06/09 07:03:46;;;;;;;8.68;2.85;;;20.70;99.90;;;;;;5005959;28;20083;-60
2023/06/09 07:06:12;;;;;;;4.10;2.60;;;20.70;99.90;;;;;;4980156;28;20494;-60
2023/06/09 07:08:38;;;;;;;5.70;2.97;;;20.70;99.90;;;;;;4980502;28;20034;-60
2023/06/09 07:11:04;;;;;;;5.30;2.63;;;20.60;99.90;;;;;;5003523;28;20478;-60
2023/06/09 07:13:29;;;;;;;4.18;2.38;;;20.70;99.90;;;;;;4986472;28;20038;-60
2023/06/09 07:15:55;;;;;;;4.63;2.83;;;20.70;99.90;;;;;;4999740;28;20031;-60
2023/06/09 07:18:21;;;;;;;5.45;2.70;;;20.80;99.90;;;;;;5004794;28;20026;-60
2023/06/09 07:20:49;;;;;;;5.63;3.50;;;20.80;99.90;;;;;;5000211;28;20026;-60
2023/06/09 07:23:15;;;;;;;5.72;2.58;;;20.90;99.90;;;;;;4974482;28;20034;-60
2023/06/09 07:25:41;;;;;;;4.10;2.58;;;21.00;99.90;;;;;;4999981;28;20027;-60
2023/06/09 07:28:06;;;;;;;6.43;2.65;;;21.10;99.90;;;;;;4976019;28;20158;-61
2023/06/09 07:30:32;;;;;;;5.13;2.90;;;21.10;99.90;;;;;;4999596;28;20041;-59
2023/06/09 07:32:58;;;;;;;9.18;3.10;;;21.30;99.90;;;;;;5006852;28;20129;-59
2023/06/09 07:35:24;;;;;;;4.50;2.67;;;21.30;99.90;;;;;;4999756;28;20073;-60
2023/06/09 07:37:50;;;;;;;5.65;2.83;;;21.30;99.90;;;;;;5005567;28;20438;-59
2023/06/09 07:40:16;;;;;;;5.30;2.95;;;21.20;99.90;;;;;;4999892;28;20486;-60
2023/06/09 07:42:42;;;;;;;4.65;2.60;;;21.30;99.90;;;;;;5006784;28;20092;-59
2023/06/09 07:45:10;;;;;;;4.93;1.98;;;21.40;99.90;;;;;;4997937;28;20053;-60
2023/06/09 07:47:36;;;;;;;4.72;2.40;;;21.40;99.90;;;;;;5006549;28;20088;-60
2023/06/09 07:50:03;;;;;;;4.50;2.72;;;21.50;99.90;;;;;;4993586;28;20046;-60
2023/06/09 07:52:30;;;;;;;6.10;2.38;;;21.50;99.90;;;;;;4996162;28;20027;-60
2023/06/09 07:54:55;;;;;;;5.70;2.53;;;21.40;99.90;;;;;;4978195;28;20034;-60
2023/06/09 07:57:21;;;;;;;4.45;2.63;;;21.50;99.90;;;;;;5004890;28;20128;-59
2023/06/09 07:59:47;;;;;;;5.88;2.80;;;21.70;99.90;;;;;;5000830;28;20033;-60
2023/06/09 08:02:13;;;;;;;4.97;2.72;;;21.90;99.90;;;;;;4986532;28;20088;-60
2023/06/09 08:04:41;;;;;;;5.70;2.58;;;22.00;99.90;;;;;;4983542;28;20534;-60
2023/06/09 08:07:07;;;;;;;4.18;2.40;;;22.10;99.90;;;;;;4995141;28;20056;-59
2023/06/09 08:09:33;;;;;;;4.90;2.17;;;22.10;99.90;;;;;;5001581;28;20529;-62
2023/06/09 08:11:58;;;;;;;4.47;2.28;;;22.30;99.90;;;;;;5003077;28;20049;-61
2023/06/09 08:14:24;;;;;;;4.28;2.30;;;22.40;99.90;;;;;;4983857;28;20061;-60
2023/06/09 08:16:51;;;;;;;8.25;2.90;;;22.60;99.90;;;;;;5002612;28;20456;-60
2023/06/09 08:19:17;;;;;;;7.90;2.47;;;22.60;99.90;;;;;;4996765;28;20031;-60
2023/06/09 08:21:43;;;;;;;4.45;2.40;;;22.80;99.90;;;;;;4999504;28;20033;-60
2023/06/09 08:24:11;;;;;;;9.30;3.10;;;22.70;99.90;;;;;;4994195;28;20022;-60
2023/06/09 08:26:37;;;;;;;4.03;2.33;;;22.90;99.90;;;;;;4985166;28;20394;-60
2023/06/09 08:29:06;;;;;;;6.80;2.72;;;22.90;99.90;;;;;;5000227;28;20102;-60
2023/06/09 08:31:33;;;;;;;3.75;2.10;;;23.00;99.90;;;;;;5002710;28;20044;-60
2023/06/09 08:33:59;;;;;;;4.93;2.83;;;23.10;99.70;;;;;;4983664;28;20030;-60
2023/06/09 08:36:26;;;;;;;3.92;2.47;;;23.00;99.90;;;;;;4984900;28;20401;-60
2023/06/09 08:38:51;;;;;;;4.38;2.33;;;23.20;99.90;;;;;;5000518;28;20050;-60
2023/06/09 08:41:24;;;;;;;4.68;2.42;;;23.40;99.90;;;;;;5002491;28;20026;-60
2023/06/09 08:43:51;;;;;;;3.20;2.08;;;23.40;99.20;;;;;;4984009;28;20026;-60
2023/06/09 08:46:19;;;;;;;4.63;2.30;;;23.50;99.10;;;;;;5002510;28;20101;-60
2023/06/09 08:48:56;;;;;;;3.42;2.22;;;23.60;98.70;;;;;;4983723;28;20176;-61
2023/06/09 08:51:22;;;;;;;3.95;2.35;;;23.80;98.60;;;;;;4999130;28;20022;-60
2023/06/09 08:53:55;;;;;;;5.18;2.33;;;24.10;98.00;;;;;;4973597;28;20037;-60
2023/06/09 08:56:22;;;;;;;3.50;2.17;;;24.00;97.50;;;;;;4985096;28;20346;-60
2023/06/09 08:58:50;;;;;;;3.70;1.90;;;24.20;97.80;;;;;;5000645;28;20128;-59
2023/06/09 09:01:17;;;;;;;3.22;1.95;;;24.10;97.40;;;;;;4984864;28;20018;-59
2023/06/09 09:03:50;;;;;;;5.15;1.92;;;24.40;97.10;;;;;;4982027;28;20398;-59
2023/06/09 09:06:16;;;;;;;4.82;2.60;;;24.40;96.40;;;;;;4989089;28;20537;-59
2023/06/09 09:08:44;;;;;;;3.70;2.08;;;24.60;96.40;;;;;;5004762;28;20068;-60
2023/06/09 09:11:11;;;;;;;4.30;2.05;;;24.70;96.30;;;;;;4988719;28;20053;-59
2023/06/09 09:13:36;;;;;;;3.63;1.90;;;24.80;95.90;;;;;;4987776;28;20026;-61
2023/06/09 09:16:02;;;;;;;6.55;1.98;;;24.90;95.90;;;;;;5005436;28;20381;-59
2023/06/09 09:18:34;;;;;;;4.18;2.28;;;25.20;95.70;;;;;;4988989;28;20030;-59
2023/06/09 09:21:02;;;;;;;3.90;2.08;;;25.00;94.70;;;;;;4985169;28;20041;-60
2023/06/09 09:23:32;;;;;;;3.45;1.98;;;25.10;94.70;;;;;;4976364;28;20521;-60
2023/06/09 09:26:00;;;;;;;3.88;2.10;;;25.10;94.40;;;;;;5004501;28;20030;-60
2023/06/09 09:28:40;;;;;;;3.60;2.03;;;25.50;94.90;;;;;;4988858;28;20034;-59
2023/06/09 09:31:11;;;;;;;4.05;2.00;;;25.50;93.60;;;;;;4987828;28;20037;-60
2023/06/09 09:33:46;;;;;;;4.13;1.63;;;25.60;92.60;;;;;;4987354;28;20145;-60
2023/06/09 09:36:12;;;;;;;3.92;1.88;;;25.50;92.80;;;;;;4965785;28;20036;-60
2023/06/09 09:38:43;;;;;;;6.38;3.00;;;25.60;93.40;;;;;;5011936;23;20042;-61
2023/06/09 09:41:14;;;;;;;6.50;3.15;;;25.90;92.80;;;;;;4968576;28;20129;-60
2023/06/09 09:43:40;;;;;;;3.05;1.52;;;25.90;91.70;;;;;;4971496;28;20038;-60
2023/06/09 09:46:07;;;;;;;3.50;1.98;;;26.20;91.40;;;;;;4966570;28;20033;-60
2023/06/09 09:48:38;;;;;;;3.13;1.70;;;26.40;91.90;;;;;;4953555;28;20051;-60
2023/06/09 09:51:05;;;;;;;2.55;1.45;;;26.70;90.50;;;;;;4946676;28;20086;-60
2023/06/09 09:53:31;;;;;;;4.40;1.60;;;26.60;89.70;;;;;;4949633;29;20020;-60
2023/06/09 09:56:00;;;;;;;4.32;1.98;;;26.70;89.50;;;;;;4947774;28;20037;-60
2023/06/09 09:58:34;;;;;;;3.88;1.88;;;26.90;89.90;;;;;;4955290;28;20031;-61
2023/06/09 10:01:05;;;;;;;3.10;1.77;;;27.10;89.70;;;;;;4965319;28;20094;-60
2023/06/09 10:03:33;;;;;;;2.65;1.50;;;27.20;88.90;;;;;;4954222;28;20058;-61
2023/06/09 10:06:03;;;;;;;3.55;1.80;;;27.10;88.00;;;;;;4964901;28;20090;-60
2023/06/09 10:08:31;;;;;;;3.13;1.65;;;26.90;86.30;;;;;;4954716;28;20483;-60
2023/06/09 10:11:00;;;;;;;2.83;1.30;;;26.90;87.90;;;;;;4947566;28;20380;-60
2023/06/09 10:13:27;;;;;;;3.50;1.83;;;26.80;87.40;;;;;;4971677;28;20026;-60
2023/06/09 10:15:57;;;;;;;8.73;2.40;;;27.10;87.90;;;;;;4963741;28;20106;-60
2023/06/09 10:18:24;;;;;;;3.45;1.55;;;27.30;88.00;;;;;;4972278;28;20201;-60
2023/06/09 10:20:52;;;;;;;3.42;1.88;;;27.40;86.10;;;;;;4962519;28;20113;-60
2023/06/09 10:23:20;;;;;;;7.65;1.48;;;27.80;84.50;;;;;;4953940;29;20094;-61
2023/06/09 10:25:48;;;;;;;2.65;1.48;;;27.80;83.10;;;;;;4962218;28;20054;-60
2023/06/09 10:28:17;;;;;;;4.57;1.20;;;27.80;82.70;;;;;;4973782;28;20035;-61
2023/06/09 10:30:45;;;;;;;3.63;1.75;;;27.90;82.10;;;;;;4962630;28;20031;-60
2023/06/09 10:33:28;;;;;;;2.33;1.42;;;27.90;81.30;;;;;;4956507;28;20023;-60
2023/06/09 10:36:02;;;;;;;2.35;1.30;;;28.00;81.10;;;;;;4943703;28;20031;-60
2023/06/09 10:38:30;;;;;;;2.85;1.40;;;28.20;80.50;;;;;;4971423;28;20041;-61
2023/06/09 10:41:20;;;;;;;2.53;1.50;;;28.00;80.70;;;;;;4964169;28;20051;-60
2023/06/09 10:44:29;;;;;;;2.77;1.50;;;28.10;80.20;;;;;;4969272;28;20166;-60
2023/06/09 10:46:55;;;;;;;2.25;1.33;;;28.50;79.30;;;;;;4965141;28;20409;-60
2023/06/09 10:49:36;;;;;;;2.72;1.40;;;28.50;78.70;;;;;;4964303;28;20035;-60
2023/06/09 10:52:03;;;;;;;3.08;1.13;;;28.10;78.80;;;;;;4961941;28;20043;-60
2023/06/09 10:54:35;;;;;;;2.20;1.27;;;28.30;79.00;;;;;;4959111;28;20110;-60
2023/06/09 10:57:06;;;;;;;2.53;1.25;;;28.60;78.10;;;;;;4948877;28;20089;-60
2023/06/09 10:59:32;;;;;;;7.65;1.48;;;28.70;77.00;;;;;;4968926;28;20031;-61
2023/06/09 11:02:03;;;;;;;2.00;1.30;;;28.80;77.80;;;;;;4956859;28;20078;-62
2023/06/09 11:04:39;;;;;;;3.03;1.33;;;29.20;76.90;;;;;;4953204;28;20066;-61
2023/06/09 11:07:13;;;;;;;5.38;1.20;;;29.40;75.20;;;;;;4951619;28;20446;-63
2023/06/09 11:09:59;;;;;;;2.13;1.27;;;29.10;75.00;;;;;;4949101;28;20030;-60
2023/06/09 11:12:27;;;;;;;3.28;1.17;;;29.30;74.20;;;;;;4925078;28;20051;-61
2023/06/09 11:15:00;;;;;;;3.00;1.10;;;29.30;73.50;;;;;;4949722;28;20121;-61
2023/06/09 11:17:34;;;;;;;1.85;1.00;;;29.40;71.50;;;;;;4947182;28;20040;-60
2023/06/09 11:22:54;;;;;;;3.83;1.48;;;29.60;73.20;;;;;;4940554;28;20056;-61
2023/06/09 11:25:20;;;;;;;2.17;1.30;;;29.30;73.20;;;;;;4947969;28;20030;-62
2023/06/09 11:27:58;;;;;;;2.22;1.45;;;29.20;73.20;;;;;;4941450;28;20035;-62
2023/06/09 11:30:32;;;;;;;1.75;1.13;;;29.10;72.80;;;;;;4946410;28;20031;-61
2023/06/09 11:33:00;;;;;;;2.22;1.10;;;29.60;74.00;;;;;;4922918;28;20035;-61
2023/06/09 11:37:58;;;;;;;2.40;1.38;;;28.90;73.60;;;;;;4933346;28;20066;-61
2023/06/09 11:40:26;;;;;;;3.15;1.58;;;28.70;73.30;;;;;;4919412;29;20050;-62
2023/06/09 11:42:52;;;;;;;3.90;1.77;;;29.30;75.00;;;;;;4934022;28;20051;-62
2023/06/09 11:45:18;;;;;;;2.00;1.20;;;29.70;74.20;;;;;;4937189;28;20031;-61
2023/06/09 11:47:45;;;;;;;2.70;1.60;;;30.10;72.70;;;;;;4940548;28;20098;-61
2023/06/09 11:50:16;;;;;;;6.05;1.50;;;30.20;71.50;;;;;;4942252;28;20488;-62
2023/06/09 11:52:43;;;;;;;;;;;30.00;71.20;;;;;;4945206;28;20090;-72
2023/06/09 11:55:13;;;;;;;2.83;1.20;;;29.60;70.80;;;;;;4939331;28;19918;-72
2023/06/09 11:57:39;;;;;;;3.33;1.70;;;29.80;71.50;;;;;;4937322;28;20055;-72
2023/06/09 12:00:12;;;;;;;2.72;1.70;;;30.20;71.10;;;;;;4933542;28;20234;-72
2023/06/09 12:02:40;;;;;;;1.90;1.50;;;30.00;70.70;;;;;;4943731;28;20397;-72
2023/06/09 12:05:14;;;;;;;3.38;1.40;;;29.90;70.00;;;;;;4938105;28;20062;-72
2023/06/09 12:07:44;;;;;;;4.75;1.70;;;30.00;70.10;;;;;;4951327;28;20081;-72
2023/06/09 12:10:12;;;;;;;2.25;1.23;;;30.10;69.20;;;;;;4960282;28;20031;-72
2023/06/09 12:12:50;;;;;;;2.17;1.42;;;29.70;68.10;;;;;;4945407;29;20031;-72
2023/06/09 12:15:19;;;;;;;2.10;1.20;;;30.10;69.90;;;;;;4953927;28;20031;-72
2023/06/09 12:17:52;;;;;;;2.42;1.40;;;29.90;68.60;;;;;;4968339;28;20031;-72
2023/06/09 12:20:30;;;;;;;4.05;1.58;;;29.90;68.80;;;;;;4951004;28;20019;-72
2023/06/09 12:23:06;;;;;;;3.05;1.40;;;30.20;69.50;;;;;;4953311;28;20118;-72
2023/06/09 12:25:40;;;;;;;3.33;1.48;;;30.10;68.10;;;;;;4960167;28;20030;-72
2023/06/09 12:28:23;;;;;;;2.97;1.50;;;30.20;68.10;;;;;;4950637;28;20062;-72
2023/06/09 12:31:09;;;;;;;2.30;1.05;;;30.20;66.70;;;;;;4961055;28;20020;-72
2023/06/09 12:33:36;;;;;;;2.47;1.20;;;30.40;67.80;;;;;;4948593;29;20038;-72
2023/06/09 12:36:07;;;;;;;3.38;1.10;;;30.80;65.30;;;;;;4945648;28;20039;-72
2023/06/09 12:38:43;;;;;;;2.08;1.02;;;30.50;64.40;;;;;;4946464;28;20126;-72
2023/06/09 12:41:12;;;;;;;6.97;1.73;;;30.60;65.50;;;;;;4963575;28;20039;-70
2023/06/09 12:43:52;;;;;;;2.53;1.20;;;31.10;65.60;;;;;;4963138;28;20069;-68
2023/06/09 12:46:28;;;;;;;2.15;1.27;;;31.10;64.90;;;;;;4953743;28;20058;-70
2023/06/09 12:49:02;;;;;;;3.03;1.58;;;31.10;64.80;;;;;;4936343;28;20126;-70
2023/06/09 12:51:34;;;;;;;2.10;1.40;;;31.50;65.20;;;;;;4942774;29;20051;-69
2023/06/09 12:54:00;;;;;;;9.77;1.60;;;31.80;64.70;;;;;;4936870;28;20403;-68
2023/06/09 12:56:26;;;;;;;2.38;1.45;;;31.70;63.70;;;;;;4963304;28;20054;-71
2023/06/09 12:58:55;;;;;;;2.58;1.35;;;31.60;63.80;;;;;;4962498;28;20491;-70
2023/06/09 13:01:24;;;;;;;2.58;1.27;;;31.80;63.00;;;;;;4946460;28;20027;-70